Time;durP1;ratioP1;P1;durP2;ratioP2;P2;SDS_P1;SDS_P2;PMS_P1;PMS_P2;Temp;Humidity;BMP_temperature;BMP_pressure;BME280_temperature;BME280_humidity;BME280_pressure;Samples;Min_cycle;Max_cycle;Signal;HPM_P1;HPM_P2
2021/01/16 00:00:32;;;;;;;40.58;25.77;;;;;;;-6.40;100.00;99210.63;2096669;28;20300;-77
2021/01/16 00:01:33;;;;;;;37.20;24.92;;;;;;;-6.48;100.00;99208.13;2096691;28;20225;-77
2021/01/16 00:02:35;;;;;;;38.22;25.27;;;;;;;-6.62;100.00;99194.19;2097161;28;20628;-76
2021/01/16 00:03:36;;;;;;;40.95;24.35;;;;;;;-6.50;100.00;99216.09;2096505;28;20297;-76
2021/01/16 00:04:37;;;;;;;40.25;25.60;;;;;;;-6.51;100.00;99217.09;2095672;28;20733;-77
2021/01/16 00:05:40;;;;;;;37.50;25.13;;;;;;;-6.51;100.00;99219.69;2096490;28;20641;-76
2021/01/16 00:06:40;;;;;;;41.63;26.05;;;;;;;-6.53;100.00;99224.22;2088362;28;20223;-76
2021/01/16 00:07:46;;;;;;;38.37;25.13;;;;;;;-6.58;100.00;99214.41;2087308;28;21847;-77
2021/01/16 00:08:46;;;;;;;38.58;25.10;;;;;;;-6.59;100.00;99222.38;2092108;28;20237;-78
2021/01/16 00:09:48;;;;;;;53.23;26.10;;;;;;;-6.66;100.00;99200.75;2083972;28;20247;-76
2021/01/16 00:10:50;;;;;;;47.00;26.73;;;;;;;-6.62;100.00;99213.16;2104721;28;20252;-75
2021/01/16 00:11:51;;;;;;;38.88;24.80;;;;;;;-6.57;100.00;99210.03;2104614;28;20290;-77
2021/01/16 00:12:52;;;;;;;42.05;25.30;;;;;;;-6.53;100.00;99215.66;2085646;28;20317;-78
2021/01/16 00:13:54;;;;;;;43.33;24.63;;;;;;;-6.55;100.00;99223.63;2085968;28;20226;-77
2021/01/16 00:14:54;;;;;;;41.22;25.50;;;;;;;-6.60;100.00;99215.59;2096041;28;20638;-77
2021/01/16 00:15:56;;;;;;;39.33;25.13;;;;;;;-6.52;100.00;99228.44;2096343;28;20305;-77
2021/01/16 00:16:57;;;;;;;40.08;24.88;;;;;;;-6.58;100.00;99218.81;2096336;28;20356;-77
2021/01/16 00:18:00;;;;;;;47.80;26.23;;;;;;;-6.55;100.00;99226.22;2096443;28;20218;-77
2021/01/16 00:19:02;;;;;;;44.97;26.48;;;;;;;-6.63;100.00;99221.13;2095930;28;20218;-77
2021/01/16 00:20:04;;;;;;;40.10;26.05;;;;;;;-6.58;100.00;99229.19;2096454;28;20263;-78
2021/01/16 00:21:05;;;;;;;39.50;24.90;;;;;;;-6.60;100.00;99220.78;2097341;28;20227;-77
2021/01/16 00:22:06;;;;;;;40.75;27.10;;;;;;;-6.66;100.00;99226.69;2096274;28;20321;-77
2021/01/16 00:23:08;;;;;;;38.13;24.73;;;;;;;-6.65;100.00;99226.50;2087663;28;20234;-77
2021/01/16 00:24:09;;;;;;;42.25;24.70;;;;;;;-6.72;100.00;99219.63;2088020;28;20274;-78
2021/01/16 00:25:12;;;;;;;38.38;25.40;;;;;;;-6.65;100.00;99223.91;2096471;28;20680;-77
2021/01/16 00:26:13;;;;;;;40.47;25.38;;;;;;;-6.66;100.00;99222.28;2095848;28;20238;-77
2021/01/16 00:27:14;;;;;;;34.00;23.73;;;;;;;-6.73;100.00;99215.41;2088221;28;20218;-77
2021/01/16 00:28:17;;;;;;;41.38;25.83;;;;;;;-6.72;100.00;99227.41;2088708;28;20309;-77
2021/01/16 00:29:18;;;;;;;46.13;24.88;;;;;;;-6.71;100.00;99224.63;2088342;28;20223;-77
2021/01/16 00:30:22;;;;;;;42.43;24.77;;;;;;;-6.74;100.00;99229.38;2096780;28;20218;-77
2021/01/16 00:31:23;;;;;;;44.47;26.48;;;;;;;-6.73;100.00;99225.78;2091765;28;20242;-78
2021/01/16 00:32:24;;;;;;;37.40;25.43;;;;;;;-6.75;100.00;99220.78;2096347;28;20273;-77
2021/01/16 00:33:27;;;;;;;41.08;25.15;;;;;;;-6.78;100.00;99218.53;2096199;28;20218;-77
2021/01/16 00:34:28;;;;;;;43.35;25.00;;;;;;;-6.76;100.00;99213.19;2096518;28;20305;-78
2021/01/16 00:35:32;;;;;;;38.53;25.40;;;;;;;-6.70;100.00;99222.81;2096962;28;20222;-77
2021/01/16 00:36:33;;;;;;;40.35;24.38;;;;;;;-6.70;100.00;99215.03;2096020;28;20226;-77
2021/01/16 00:37:34;;;;;;;38.00;24.23;;;;;;;-6.61;100.00;99226.94;2096305;28;20696;-77
2021/01/16 00:38:39;;;;;;;37.88;23.98;;;;;;;-6.60;100.00;99225.97;2096283;28;20735;-77
2021/01/16 00:39:40;;;;;;;33.28;23.35;;;;;;;-6.57;100.00;99231.59;2096162;28;20227;-78
2021/01/16 00:40:42;;;;;;;39.90;23.63;;;;;;;-6.61;100.00;99230.31;2089302;28;20280;-77
2021/01/16 00:41:42;;;;;;;33.83;23.17;;;;;;;-6.65;100.00;99225.69;2088048;28;20609;-77
2021/01/16 00:42:45;;;;;;;33.23;22.07;;;;;;;-6.66;100.00;99231.88;2095017;28;20221;-77
2021/01/16 00:43:46;;;;;;;41.38;24.55;;;;;;;-6.75;100.00;99220.00;2096390;28;20696;-77
2021/01/16 00:44:47;;;;;;;37.60;24.07;;;;;;;-6.79;100.00;99218.72;2104683;28;20541;-77
2021/01/16 00:45:49;;;;;;;38.97;24.83;;;;;;;-6.76;100.00;99223.56;2096165;28;20249;-77
2021/01/16 00:46:50;;;;;;;34.50;23.42;;;;;;;-6.79;100.00;99222.13;2080098;28;20570;-77
2021/01/16 00:47:51;;;;;;;34.58;23.90;;;;;;;-6.74;100.00;99216.41;2096296;28;20224;-77
2021/01/16 00:48:54;;;;;;;51.83;36.43;;;;;;;-6.74;100.00;99226.78;2095541;28;20230;-78
2021/01/16 00:49:54;;;;;;;39.72;22.95;;;;;;;-6.78;100.00;99222.91;2096247;28;20310;-76
2021/01/16 00:50:56;;;;;;;36.70;23.77;;;;;;;-6.79;100.00;99216.13;2096248;28;20229;-77
2021/01/16 00:52:13;;;;;;;57.13;36.67;;;;;;;-6.86;100.00;99200.50;2096853;28;20263;-77
2021/01/16 00:53:14;;;;;;;31.70;21.43;;;;;;;-6.78;100.00;99221.13;2088986;28;20242;-77
2021/01/16 00:54:25;;;;;;;31.60;20.75;;;;;;;-6.68;100.00;99228.66;2088806;28;20219;-77
2021/01/16 00:55:27;;;;;;;28.63;20.83;;;;;;;-6.62;100.00;99228.72;2096211;28;20731;-77
2021/01/16 00:56:28;;;;;;;34.33;21.98;;;;;;;-6.57;100.00;99234.19;2088064;28;20713;-78
2021/01/16 00:57:39;;;;;;;36.00;21.02;;;;;;;-6.52;100.00;99228.44;2088814;28;20235;-77
2021/01/16 00:58:43;;;;;;;28.80;20.20;;;;;;;-6.51;100.00;99221.47;2096668;28;20688;-77
2021/01/16 01:00:05;;;;;;;30.17;20.85;;;;;;;-6.47;100.00;99238.28;2095960;28;20221;-76
2021/01/16 01:01:12;;;;;;;27.40;20.80;;;;;;;-6.48;100.00;99240.06;2088987;28;20234;-77
2021/01/16 01:02:15;;;;;;;27.38;20.17;;;;;;;-6.45;100.00;99234.50;2094140;28;20219;-76
2021/01/16 01:03:16;;;;;;;32.58;21.05;;;;;;;-6.43;100.00;99242.91;2096006;28;20326;-76
2021/01/16 01:04:19;;;;;;;33.80;20.05;;;;;;;-6.47;100.00;99233.09;2096955;28;20256;-76
2021/01/16 01:05:21;;;;;;;28.58;19.83;;;;;;;-6.50;100.00;99226.50;2096908;28;20224;-77
2021/01/16 01:06:22;;;;;;;33.78;21.50;;;;;;;-6.43;100.00;99239.50;2096592;28;20225;-77
2021/01/16 01:07:23;;;;;;;27.88;18.90;;;;;;;-6.46;100.00;99232.91;2095966;28;20716;-77
2021/01/16 01:08:28;;;;;;;28.83;19.73;;;;;;;-6.45;100.00;99234.50;2087301;28;20227;-76
2021/01/16 01:09:28;;;;;;;32.30;21.83;;;;;;;-6.43;100.00;99242.13;2080686;28;20690;-76
2021/01/16 01:10:31;;;;;;;29.87;20.17;;;;;;;-6.42;100.00;99244.56;2095253;28;20551;-76
2021/01/16 01:11:32;;;;;;;26.90;20.50;;;;;;;-6.43;100.00;99237.72;2096811;28;20242;-76
2021/01/16 01:12:34;;;;;;;31.90;22.93;;;;;;;-6.48;100.00;99234.88;2096984;28;20692;-76
2021/01/16 01:13:35;;;;;;;29.55;20.42;;;;;;;-6.49;100.00;99241.06;2095911;28;20680;-77
2021/01/16 01:14:36;;;;;;;26.97;20.23;;;;;;;-6.52;100.00;99228.44;2096301;28;20704;-76
2021/01/16 01:15:37;;;;;;;29.38;21.40;;;;;;;-6.50;100.00;99236.06;2104104;28;20252;-77
2021/01/16 01:16:40;;;;;;;33.05;20.95;;;;;;;-6.48;100.00;99234.88;2104386;28;20650;-77
2021/01/16 01:17:41;;;;;;;32.03;20.42;;;;;;;-6.43;100.00;99237.72;2096940;28;20356;-76
2021/01/16 01:18:42;;;;;;;27.57;20.03;;;;;;;-6.45;100.00;99233.72;2095759;28;20288;-77
2021/01/16 01:19:44;;;;;;;29.80;20.85;;;;;;;-6.50;100.00;99242.06;2096240;28;20256;-76
2021/01/16 01:20:46;;;;;;;28.55;20.38;;;;;;;-6.52;100.00;99230.22;2096173;28;20218;-77
2021/01/16 01:21:46;;;;;;;24.52;18.92;;;;;;;-6.47;100.00;99238.28;2096330;28;20305;-77
2021/01/16 01:22:48;;;;;;;24.80;18.90;;;;;;;-6.47;100.00;99235.69;2096850;28;20275;-76
2021/01/16 01:23:49;;;;;;;27.17;19.52;;;;;;;-6.50;100.00;99234.28;2095971;28;20611;-76
2021/01/16 01:24:50;;;;;;;27.17;19.23;;;;;;;-6.53;100.00;99226.81;2085643;28;20249;-77
2021/01/16 01:25:51;;;;;;;30.45;20.33;;;;;;;-6.53;100.00;99242.41;2079744;28;20774;-77
2021/01/16 01:26:52;;;;;;;39.73;22.40;;;;;;;-6.59;100.00;99233.56;2095749;28;20666;-77
2021/01/16 01:27:54;;;;;;;32.42;21.45;;;;;;;-6.57;100.00;99241.16;2096619;28;20228;-77
2021/01/16 01:28:56;;;;;;;34.28;19.98;;;;;;;-6.57;100.00;99233.38;2095713;28;20617;-77
2021/01/16 01:29:56;;;;;;;34.20;21.27;;;;;;;-6.65;100.00;99234.28;2087636;28;21483;-77
2021/01/16 01:30:58;;;;;;;29.73;20.50;;;;;;;-6.66;100.00;99235.28;2087855;28;20561;-76
2021/01/16 01:31:59;;;;;;;30.02;18.83;;;;;;;-6.64;100.00;99238.47;2096061;28;20620;-77
2021/01/16 01:33:00;;;;;;;31.03;21.33;;;;;;;-6.65;100.00;99236.06;2095692;28;20222;-76
2021/01/16 01:34:01;;;;;;;27.77;20.95;;;;;;;-6.69;100.00;99227.88;2079976;28;20303;-77
2021/01/16 01:35:04;;;;;;;28.67;20.20;;;;;;;-6.65;100.00;99233.47;2079459;28;20227;-76
2021/01/16 01:36:05;;;;;;;30.02;21.05;;;;;;;-6.67;100.00;99232.88;2095920;28;20221;-76
2021/01/16 01:37:06;;;;;;;112.00;78.00;;;;;;;-6.60;100.00;99244.13;2096076;28;20743;-76
2021/01/16 01:38:08;;;;;;;26.40;18.63;;;;;;;-6.67;100.00;99227.69;2085294;28;20291;-77
2021/01/16 01:39:09;;;;;;;23.58;17.52;;;;;;;-6.58;100.00;99244.75;2096116;28;20685;-77
2021/01/16 01:40:11;;;;;;;25.73;18.07;;;;;;;-6.55;100.00;99236.59;2095618;28;20234;-76
2021/01/16 01:41:12;;;;;;;25.75;18.90;;;;;;;-6.49;100.00;99241.06;2087874;28;20550;-76
2021/01/16 01:43:18;;;;;;;23.42;18.98;;;;;;;-6.52;100.00;99238.00;2089671;27;20561;-76
2021/01/16 01:44:19;;;;;;;26.02;18.95;;;;;;;-6.52;100.00;99244.00;2087448;28;20227;-76
2021/01/16 01:45:21;;;;;;;29.57;19.23;;;;;;;-6.56;100.00;99238.38;2095065;28;20301;-77
2021/01/16 01:46:22;;;;;;;26.98;19.10;;;;;;;-6.50;100.00;99238.66;2094541;28;20525;-78
2021/01/16 01:47:23;;;;;;;23.77;18.13;;;;;;;-6.55;100.00;99244.38;2103307;28;20338;-77
2021/01/16 01:48:25;;;;;;;30.25;18.40;;;;;;;-6.59;100.00;99243.94;2094779;28;20525;-77
2021/01/16 01:49:27;;;;;;;26.63;18.85;;;;;;;-6.56;100.00;99242.78;2086920;28;20225;-77
2021/01/16 01:50:29;;;;;;;31.58;19.73;;;;;;;-6.52;100.00;99241.41;2087397;28;20344;-76
2021/01/16 01:51:31;;;;;;;27.17;19.83;;;;;;;-6.49;100.00;99243.66;2103030;28;20237;-77
2021/01/16 01:52:33;;;;;;;23.00;18.98;;;;;;;-6.45;100.00;99250.09;2094802;28;20218;-77
2021/01/16 01:53:36;;;;;;;27.40;20.05;;;;;;;-6.44;100.00;99237.91;2086690;28;20593;-76
2021/01/16 01:54:37;;;;;;;25.92;20.15;;;;;;;-6.40;100.00;99241.75;2095446;28;20656;-78
2021/01/16 01:55:40;;;;;;;28.17;20.92;;;;;;;-6.36;100.00;99249.00;2095656;28;20238;-76
2021/01/16 01:56:41;;;;;;;30.10;18.67;;;;;;;-6.38;100.00;99250.97;2094881;28;20250;-76
2021/01/16 01:57:44;;;;;;;30.70;19.60;;;;;;;-6.42;100.00;99254.94;2094907;28;20230;-77
2021/01/16 01:58:48;;;;;;;30.45;20.45;;;;;;;-6.38;100.00;99253.56;2095599;28;20667;-76
2021/01/16 01:59:50;;;;;;;27.80;20.35;;;;;;;-6.37;100.00;99257.78;2095197;28;20222;-76
2021/01/16 02:00:53;;;;;;;31.05;20.38;;;;;;;-6.43;100.00;99255.88;2094786;28;20301;-76
2021/01/16 02:01:56;;;;;;;34.75;24.05;;;;;;;-6.44;100.00;99241.31;2092475;28;20230;-77
2021/01/16 02:04:15;;;;;;;27.30;21.08;;;;;;;-6.51;100.00;99240.44;2110882;28;21047;-76
2021/01/16 02:05:16;;;;;;;28.83;21.60;;;;;;;-6.46;100.00;99243.28;2112265;28;20221;-76
2021/01/16 02:06:18;;;;;;;26.58;20.15;;;;;;;-6.55;100.00;99244.38;2112308;28;20231;-76
2021/01/16 02:07:24;;;;;;;26.08;20.98;;;;;;;-6.53;100.00;99247.59;2102899;28;20224;-77
2021/01/16 02:08:25;;;;;;;28.80;19.80;;;;;;;-6.52;100.00;99246.59;2095282;28;20218;-76
2021/01/16 02:09:26;;;;;;;30.65;20.15;;;;;;;-6.56;100.00;99240.19;2103496;28;20228;-77
2021/01/16 02:10:27;;;;;;;30.90;21.07;;;;;;;-6.67;100.00;99220.69;2112266;28;20231;-77
2021/01/16 02:11:28;;;;;;;49.17;33.67;;;;;;;-6.57;100.00;99244.56;2103095;28;20312;-76
2021/01/16 02:12:29;;;;;;;33.60;24.13;;;;;;;-6.60;100.00;99231.97;2103475;28;20225;-76
2021/01/16 02:13:31;;;;;;;29.60;20.77;;;;;;;-6.61;100.00;99240.72;2112226;28;20467;-77
2021/01/16 02:14:33;;;;;;;30.88;20.92;;;;;;;-6.60;100.00;99242.34;2103099;28;20225;-77
2021/01/16 02:15:39;;;;;;;31.85;20.60;;;;;;;-6.62;100.00;99239.09;2103583;28;20232;-77
2021/01/16 02:16:44;;;;;;;31.60;21.17;;;;;;;-6.65;100.00;99239.47;2108154;28;20307;-76
2021/01/16 02:17:48;;;;;;;27.35;20.80;;;;;;;-6.64;100.00;99235.09;2103681;28;20595;-76
2021/01/16 02:18:50;;;;;;;34.58;20.45;;;;;;;-6.67;100.00;99245.84;2111383;28;20217;-77
2021/01/16 02:20:11;;;;;;;28.65;21.02;;;;;;;-6.64;100.00;99238.47;2111653;27;20671;-76
2021/01/16 02:21:18;;;;;;;28.23;20.10;;;;;;;-6.69;100.00;99232.22;2111319;28;20236;-76
2021/01/16 02:22:20;;;;;;;26.60;20.85;;;;;;;-6.73;100.00;99228.38;2112367;28;20220;-77
2021/01/16 02:23:33;;;;;;;29.02;21.80;;;;;;;-6.74;100.00;99224.19;2112203;28;20213;-76
2021/01/16 02:24:39;;;;;;;27.65;19.60;;;;;;;-6.74;100.00;99230.19;2111925;28;20249;-77
2021/01/16 02:26:03;;;;;;;29.98;20.63;;;;;;;-6.66;100.00;99234.47;2100628;28;20221;-77
2021/01/16 02:27:19;;;;;;;33.55;20.75;;;;;;;-6.67;100.00;99230.28;2106454;28;20304;-78
2021/01/16 02:28:22;;;;;;;29.05;20.75;;;;;;;-6.71;100.00;99229.81;2111851;28;20227;-77
2021/01/16 02:29:23;;;;;;;31.42;20.92;;;;;;;-6.71;100.00;99229.00;2104769;28;20260;-76
2021/01/16 02:30:25;;;;;;;31.17;20.58;;;;;;;-6.72;100.00;99230.00;2111378;28;20671;-77
2021/01/16 02:31:30;;;;;;;29.45;19.95;;;;;;;-6.71;100.00;99236.78;2112411;28;20255;-76
2021/01/16 02:32:33;;;;;;;34.15;20.77;;;;;;;-6.73;100.00;99236.97;2112414;28;20225;-77
2021/01/16 02:33:35;;;;;;;29.10;20.17;;;;;;;-6.70;100.00;99240.97;2112256;28;20220;-77
2021/01/16 02:34:39;;;;;;;29.65;22.55;;;;;;;-6.63;100.00;99241.88;2107208;28;20303;-77
2021/01/16 02:35:46;;;;;;;27.48;21.70;;;;;;;-6.66;100.00;99242.25;2111226;28;20602;-76
2021/01/16 02:37:28;;;;;;;31.35;23.33;;;;;;;-6.66;100.00;99231.88;2112211;28;20324;-76
2021/01/16 02:38:37;;;;;;;28.13;21.35;;;;;;;-6.57;100.00;99246.34;2110199;28;20231;-77
2021/01/16 02:39:44;;;;;;;24.15;21.02;;;;;;;-6.57;100.00;99243.75;2111455;28;20224;-77
2021/01/16 02:40:50;;;;;;;30.20;21.33;;;;;;;-6.56;100.00;99243.56;2102577;28;20665;-77
2021/01/16 02:41:56;;;;;;;29.40;20.85;;;;;;;-6.58;100.00;99240.38;2098973;28;20283;-77
2021/01/16 02:43:03;;;;;;;30.55;22.75;;;;;;;-6.50;100.00;99247.25;2111331;28;20311;-77
2021/01/16 02:44:12;;;;;;;31.02;20.92;;;;;;;-6.50;100.00;99236.06;2111311;28;20281;-77
2021/01/16 02:45:15;;;;;;;29.02;21.63;;;;;;;-6.51;100.00;99245.63;2103577;28;20272;-77
2021/01/16 02:46:23;;;;;;;33.92;23.13;;;;;;;-6.50;100.00;99236.88;2111529;28;20579;-77
2021/01/16 02:47:26;;;;;;;29.58;21.08;;;;;;;-6.47;100.00;99241.69;2111853;28;20224;-76
2021/01/16 02:48:36;;;;;;;26.08;21.60;;;;;;;-6.45;100.00;99246.69;2111442;28;20357;-77
2021/01/16 02:49:42;;;;;;;31.42;21.20;;;;;;;-6.44;100.00;99240.50;2103931;28;20660;-78
2021/01/16 02:50:44;;;;;;;29.80;20.77;;;;;;;-6.45;100.00;99239.69;2111604;28;20300;-76
2021/01/16 02:51:55;;;;;;;31.30;20.88;;;;;;;-6.43;100.00;99237.72;2111373;28;20307;-76
2021/01/16 02:52:58;;;;;;;29.05;20.35;;;;;;;-6.50;100.00;99236.06;2111029;28;20231;-77
2021/01/16 02:53:59;;;;;;;23.10;19.58;;;;;;;-6.43;100.00;99236.91;2111328;28;20217;-77
2021/01/16 02:56:17;;;;;;;30.25;21.00;;;;;;;-6.49;100.00;99225.50;2090423;27;20516;-77
2021/01/16 02:57:18;;;;;;;29.23;21.45;;;;;;;-6.39;100.00;99233.78;2087545;28;20222;-77
2021/01/16 02:58:19;;;;;;;27.67;20.67;;;;;;;-6.62;100.00;99202.78;2087479;28;20219;-76
2021/01/16 02:59:20;;;;;;;27.25;20.67;;;;;;;-6.49;100.00;99209.13;2086749;28;20252;-77
2021/01/16 03:00:23;;;;;;;26.37;21.23;;;;;;;-6.42;100.00;99228.97;2086772;28;20218;-77
2021/01/16 03:01:23;;;;;;;31.50;21.35;;;;;;;-6.44;100.00;99236.13;2092444;28;20309;-76
2021/01/16 03:02:25;;;;;;;21.23;18.57;;;;;;;-6.44;100.00;99236.13;2094995;28;20743;-76
2021/01/16 03:03:29;;;;;;;28.42;19.70;;;;;;;-6.45;100.00;99231.91;2095897;28;20295;-77
2021/01/16 03:04:30;;;;;;;31.08;20.67;;;;;;;-6.43;100.00;99232.53;2094874;28;20691;-77
2021/01/16 03:05:31;;;;;;;27.48;20.65;;;;;;;-6.44;100.00;99224.94;2103395;28;20229;-76
2021/01/16 03:06:33;;;;;;;24.33;19.87;;;;;;;-6.48;100.00;99221.91;2111883;28;20225;-76
2021/01/16 03:07:36;;;;;;;28.00;21.02;;;;;;;-6.49;100.00;99215.13;2095219;28;20230;-76
2021/01/16 03:08:37;;;;;;;30.98;21.58;;;;;;;-6.48;100.00;99224.50;2086299;28;20297;-78
2021/01/16 03:09:39;;;;;;;26.30;20.42;;;;;;;-6.53;100.00;99215.66;2086794;28;20222;-77
2021/01/16 03:10:41;;;;;;;24.27;20.10;;;;;;;-6.59;100.00;99206.81;2094910;28;20233;-76
2021/01/16 03:11:44;;;;;;;28.25;21.05;;;;;;;-6.58;100.00;99200.63;2094960;28;20226;-77
2021/01/16 03:12:47;;;;;;;26.80;19.77;;;;;;;-6.57;100.00;99210.03;2095362;28;20222;-77
2021/01/16 03:13:48;;;;;;;26.95;20.23;;;;;;;-6.62;100.00;99204.56;2094930;28;20226;-76
2021/01/16 03:14:52;;;;;;;28.63;20.27;;;;;;;-6.54;100.00;99207.06;2094907;28;20214;-77
2021/01/16 03:15:53;;;;;;;29.10;20.40;;;;;;;-6.52;100.00;99196.50;2094560;28;20990;-77
2021/01/16 03:17:08;;;;;;;31.67;22.10;;;;;;;-6.60;100.00;99205.22;2095617;28;20586;-77
2021/01/16 03:18:12;;;;;;;28.38;20.38;;;;;;;-6.63;100.00;99206.38;2095538;28;20466;-77
2021/01/16 03:19:19;;;;;;;28.20;20.75;;;;;;;-6.65;100.00;99197.16;2095668;28;20738;-76
2021/01/16 03:20:21;;;;;;;34.60;21.45;;;;;;;-6.64;100.00;99202.16;2095710;28;20734;-76
2021/01/16 03:21:23;;;;;;;27.27;20.88;;;;;;;-6.72;100.00;99191.88;2094230;28;20294;-77
2021/01/16 03:22:25;;;;;;;35.35;21.27;;;;;;;-6.69;100.00;99198.50;2086320;28;20226;-78
2021/01/16 03:23:26;;;;;;;26.88;20.10;;;;;;;-6.67;100.00;99199.94;2094854;28;20225;-76
2021/01/16 03:24:27;;;;;;;28.13;21.48;;;;;;;-6.89;100.00;99160.16;2095565;28;20237;-76
2021/01/16 03:25:30;;;;;;;32.95;21.50;;;;;;;-6.71;100.00;99196.09;2095469;28;20737;-76
2021/01/16 03:26:31;;;;;;;27.42;20.20;;;;;;;-6.71;100.00;99198.69;2095671;28;20688;-77
2021/01/16 03:27:33;;;;;;;32.63;21.27;;;;;;;-6.71;100.00;99200.47;2095572;28;20288;-76
2021/01/16 03:28:34;;;;;;;29.85;20.27;;;;;;;-6.74;100.00;99199.06;2094910;28;20225;-76
2021/01/16 03:29:35;;;;;;;32.00;21.38;;;;;;;-6.72;100.00;99201.47;2086479;28;20223;-77
2021/01/16 03:30:36;;;;;;;30.95;21.05;;;;;;;-6.73;100.00;99207.63;2094778;28;20769;-77
2021/01/16 03:31:37;;;;;;;34.67;22.60;;;;;;;-6.74;100.00;99206.84;2095210;28;20625;-77
2021/01/16 03:32:39;;;;;;;34.20;21.08;;;;;;;-6.79;100.00;99198.78;2095527;28;20245;-77
2021/01/16 03:33:40;;;;;;;28.50;19.77;;;;;;;-6.73;100.00;99207.63;2095400;28;20228;-77
2021/01/16 03:34:42;;;;;;;33.77;22.83;;;;;;;-6.68;100.00;99208.72;2095521;28;20241;-77
2021/01/16 03:35:42;;;;;;;31.85;21.33;;;;;;;-6.54;100.00;99214.84;2094635;28;20309;-77
2021/01/16 03:36:44;;;;;;;31.23;21.47;;;;;;;-6.51;100.00;99216.28;2086650;28;20222;-77
2021/01/16 03:37:45;;;;;;;30.40;21.15;;;;;;;-6.48;100.00;99208.94;2094639;28;20267;-77
2021/01/16 03:38:46;;;;;;;29.00;20.73;;;;;;;-6.54;100.00;99217.44;2095357;28;20218;-77
2021/01/16 03:39:47;;;;;;;33.80;21.70;;;;;;;-6.48;100.00;99214.13;2111345;28;20248;-77
2021/01/16 03:40:48;;;;;;;29.80;21.70;;;;;;;-6.40;100.00;99208.81;2103222;28;20217;-77
2021/01/16 03:41:49;;;;;;;29.50;19.38;;;;;;;-6.51;100.00;99198.94;2099806;28;20296;-77
2021/01/16 03:42:51;;;;;;;28.87;19.20;;;;;;;-6.50;100.00;99195.34;2094715;28;20230;-76
2021/01/16 03:43:52;;;;;;;32.80;20.70;;;;;;;-6.48;100.00;99201.16;2086278;28;20225;-77
2021/01/16 03:44:53;;;;;;;31.27;21.43;;;;;;;-6.58;100.00;99203.25;2087137;28;20238;-77
2021/01/16 03:45:54;;;;;;;32.95;22.23;;;;;;;-6.55;100.00;99202.88;2086261;28;20558;-77
2021/01/16 03:46:55;;;;;;;32.33;23.07;;;;;;;-6.56;100.00;99206.44;2086295;28;20245;-76
2021/01/16 03:47:58;;;;;;;32.92;22.55;;;;;;;-6.56;100.00;99216.81;2086283;28;20731;-77
2021/01/16 03:48:59;;;;;;;32.17;22.90;;;;;;;-6.60;100.00;99200.03;2086559;28;20226;-76
2021/01/16 03:50:00;;;;;;;33.97;22.48;;;;;;;-6.56;100.00;99214.22;2087157;28;20219;-76
2021/01/16 03:51:02;;;;;;;35.92;21.80;;;;;;;-6.53;100.00;99218.25;2086379;28;20229;-77
2021/01/16 03:52:03;;;;;;;37.97;20.95;;;;;;;-6.49;100.00;99211.72;2086522;28;20226;-77
2021/01/16 03:53:04;;;;;;;30.00;21.90;;;;;;;-6.70;100.00;99184.72;2086801;28;20223;-77
2021/01/16 03:54:05;;;;;;;34.00;22.88;;;;;;;-6.55;100.00;99210.66;2086265;28;20234;-76
2021/01/16 03:55:09;;;;;;;30.67;22.90;;;;;;;-6.63;100.00;99198.56;2086412;28;20739;-76
2021/01/16 03:56:10;;;;;;;38.22;23.30;;;;;;;-6.60;100.00;99200.03;2083601;28;20717;-77
2021/01/16 03:57:11;;;;;;;37.90;22.50;;;;;;;-6.62;100.00;99197.59;2086288;28;20676;-76
2021/01/16 03:58:13;;;;;;;32.70;20.98;;;;;;;-6.59;100.00;99201.63;2086325;28;20280;-76
2021/01/16 03:59:14;;;;;;;33.97;21.38;;;;;;;-6.55;100.00;99200.25;2086956;28;20302;-77
2021/01/16 04:00:16;;;;;;;33.40;22.20;;;;;;;-6.59;100.00;99197.25;2086167;28;20705;-76
2021/01/16 04:01:17;;;;;;;35.67;23.27;;;;;;;-6.76;100.00;99169.91;2078307;28;21629;-77
2021/01/16 04:02:21;;;;;;;33.42;23.35;;;;;;;-6.52;100.00;99181.72;2086392;28;20592;-77
2021/01/16 04:03:22;;;;;;;34.10;22.25;;;;;;;-6.55;100.00;99182.09;2079809;28;20227;-78
2021/01/16 04:04:23;;;;;;;27.50;21.65;;;;;;;-6.62;100.00;99174.25;2077970;28;20223;-77
2021/01/16 04:05:25;;;;;;;37.63;23.87;;;;;;;-6.61;100.00;99169.84;2084435;28;20226;-76
2021/01/16 04:06:25;;;;;;;30.90;22.25;;;;;;;-6.56;100.00;99183.09;2086181;28;20583;-76
2021/01/16 04:07:27;;;;;;;34.63;22.27;;;;;;;-6.60;100.00;99174.88;2079691;28;20224;-76
2021/01/16 04:08:27;;;;;;;34.75;22.98;;;;;;;-6.57;100.00;99184.09;2080710;28;21167;-76
2021/01/16 04:09:29;;;;;;;35.30;23.60;;;;;;;-6.63;100.00;99169.22;2080421;28;20253;-76
2021/01/16 04:10:30;;;;;;;34.53;23.58;;;;;;;-6.58;100.00;99175.50;2080770;28;20231;-77
2021/01/16 04:11:31;;;;;;;29.33;21.73;;;;;;;-6.65;100.00;99166.81;2081521;28;20223;-77
2021/01/16 04:12:32;;;;;;;32.30;23.45;;;;;;;-6.61;100.00;99173.25;2081444;28;20230;-77
2021/01/16 04:13:34;;;;;;;29.30;21.00;;;;;;;-6.58;100.00;99175.50;2081481;28;20227;-76
2021/01/16 04:14:35;;;;;;;34.15;21.38;;;;;;;-6.65;100.00;99166.03;2080625;28;20231;-77
2021/01/16 04:15:36;;;;;;;29.58;22.15;;;;;;;-6.58;100.00;99179.88;2080500;28;20230;-76
2021/01/16 04:16:37;;;;;;;33.72;22.83;;;;;;;-6.52;100.00;99183.53;2080908;28;20280;-76
2021/01/16 04:17:38;;;;;;;31.03;21.73;;;;;;;-6.55;100.00;99176.91;2080463;28;20289;-77
2021/01/16 04:18:39;;;;;;;29.80;21.10;;;;;;;-6.60;100.00;99185.25;2080689;28;20231;-76
2021/01/16 04:19:41;;;;;;;29.88;21.60;;;;;;;-6.72;100.00;99162.53;2080363;28;20227;-77
2021/01/16 04:20:41;;;;;;;30.00;22.42;;;;;;;-6.76;100.00;99141.38;2072575;28;20801;-75
2021/01/16 04:21:43;;;;;;;30.17;22.53;;;;;;;-6.62;100.00;99171.63;2072752;28;20652;-75
2021/01/16 04:22:44;;;;;;;30.35;21.77;;;;;;;-6.71;100.00;99161.56;2072540;28;20347;-76
2021/01/16 04:23:45;;;;;;;28.83;21.50;;;;;;;-6.71;100.00;99166.75;2072507;28;20227;-76
2021/01/16 04:24:46;;;;;;;26.95;21.02;;;;;;;-6.67;100.00;99168.81;2072721;28;20227;-76
2021/01/16 04:25:47;;;;;;;25.27;20.83;;;;;;;-6.62;100.00;99163.06;2080652;28;20222;-76
2021/01/16 04:26:49;;;;;;;25.30;19.95;;;;;;;-6.55;100.00;99179.50;2080787;28;20754;-76
2021/01/16 04:27:50;;;;;;;30.15;20.00;;;;;;;-6.59;100.00;99176.50;2080503;28;20227;-76
2021/01/16 04:28:52;;;;;;;32.28;21.35;;;;;;;-6.56;100.00;99170.13;2080626;28;20277;-76
2021/01/16 04:29:53;;;;;;;26.63;21.80;;;;;;;-6.60;100.00;99169.69;2080256;28;20675;-76
2021/01/16 04:30:54;;;;;;;23.70;20.63;;;;;;;-6.62;100.00;99170.84;2072281;28;20223;-76
2021/01/16 04:31:55;;;;;;;28.00;19.90;;;;;;;-6.53;100.00;99167.16;2080619;28;20257;-76
2021/01/16 04:32:56;;;;;;;27.33;19.20;;;;;;;-6.53;100.00;99167.16;2080109;28;20224;-76
2021/01/16 04:33:57;;;;;;;25.92;19.77;;;;;;;-6.51;100.00;99172.97;2080534;28;20314;-76
2021/01/16 04:34:59;;;;;;;22.23;19.83;;;;;;;-6.59;100.00;99160.13;2080488;28;20220;-76
2021/01/16 04:35:59;;;;;;;28.25;19.33;;;;;;;-6.51;100.00;99172.97;2080564;28;20227;-76
2021/01/16 04:37:01;;;;;;;28.60;19.80;;;;;;;-6.48;100.00;99174.41;2080463;28;20227;-76
2021/01/16 04:38:02;;;;;;;25.02;20.13;;;;;;;-6.53;100.00;99168.94;2072361;28;20254;-78
2021/01/16 04:39:03;;;;;;;25.52;20.98;;;;;;;-6.52;100.00;99171.34;2072382;28;20584;-77
2021/01/16 04:40:05;;;;;;;31.77;21.30;;;;;;;-6.50;100.00;99172.00;2080467;28;20412;-75
2021/01/16 04:41:07;;;;;;;30.67;19.27;;;;;;;-6.47;100.00;99168.22;2081097;28;20254;-77
2021/01/16 04:42:08;;;;;;;25.00;19.58;;;;;;;-6.46;100.00;99175.81;2080638;28;20310;-77
2021/01/16 04:43:13;;;;;;;29.55;20.98;;;;;;;-6.36;100.00;99183.31;2081107;28;20318;-76
2021/01/16 04:44:14;;;;;;;24.30;19.77;;;;;;;-6.37;100.00;99174.72;2080524;28;20223;-78
2021/01/16 04:45:17;;;;;;;24.83;19.70;;;;;;;-6.43;100.00;99175.44;2080537;28;20672;-77
2021/01/16 04:46:19;;;;;;;29.60;20.10;;;;;;;-6.39;100.00;99179.28;2080504;28;20706;-77
2021/01/16 04:47:24;;;;;;;27.55;20.35;;;;;;;-6.41;100.00;99175.28;2072313;28;20231;-77
2021/01/16 04:48:25;;;;;;;27.42;19.08;;;;;;;-6.37;100.00;99182.50;2078168;28;20310;-78